West Fort Ann, New York
Current Conditions -  °F | °C
As of 11:05 PM on Saturday 25 Oct 2014 (Local Time) from KGFL Reporting Station
Haze Haze  
Wind Chill:   Ceiling: Unl
Heat Index:   Visibility: 4mi
Dew Point:   Wind: 8mph
Humidity: 90%   Direction: 210°SSW
Pressure: 29.5"   Gusts: NA
Location:  43.4639°N, 73.5204°W
Report Text: KGFL 260305Z AUTO 21007KT 4SM BR CLR 09/08 A2950 RMK AO2 T00940078
Loading
Personal Weather Stations






























Interactive Weather Map
Tropical Storm Tracking
New forecast layout! Learn more

10-Day Weather Forecast

Advertisements
Track Severe Weather on mobile